sensor_id;sensor_type;location;lat;lon;timestamp;P1;durP1;ratioP1;P2;durP2;ratioP2
38972;SDS011;25333;50.762;4.470;2023-01-08T00:01:53;4.22;;;1.95;;
38972;SDS011;25333;50.762;4.470;2023-01-08T00:04:18;5.17;;;2.53;;
38972;SDS011;25333;50.762;4.470;2023-01-08T00:06:44;4.43;;;2.05;;
38972;SDS011;25333;50.762;4.470;2023-01-08T00:09:10;4.33;;;1.97;;
38972;SDS011;25333;50.762;4.470;2023-01-08T00:11:36;5.03;;;1.80;;
38972;SDS011;25333;50.762;4.470;2023-01-08T00:14:02;7.22;;;2.22;;
38972;SDS011;25333;50.762;4.470;2023-01-08T00:16:28;5.22;;;2.10;;
38972;SDS011;25333;50.762;4.470;2023-01-08T00:18:54;4.35;;;2.03;;
38972;SDS011;25333;50.762;4.470;2023-01-08T00:21:19;5.47;;;2.10;;
38972;SDS011;25333;50.762;4.470;2023-01-08T00:23:45;4.60;;;1.95;;
38972;SDS011;25333;50.762;4.470;2023-01-08T00:26:11;5.63;;;2.20;;
38972;SDS011;25333;50.762;4.470;2023-01-08T00:28:38;3.75;;;2.00;;
38972;SDS011;25333;50.762;4.470;2023-01-08T00:31:05;4.22;;;2.00;;
38972;SDS011;25333;50.762;4.470;2023-01-08T00:33:31;6.22;;;2.30;;
38972;SDS011;25333;50.762;4.470;2023-01-08T00:35:57;4.00;;;1.85;;
38972;SDS011;25333;50.762;4.470;2023-01-08T00:38:24;4.47;;;2.13;;
38972;SDS011;25333;50.762;4.470;2023-01-08T00:40:53;5.10;;;2.20;;
38972;SDS011;25333;50.762;4.470;2023-01-08T00:43:19;5.13;;;2.30;;
38972;SDS011;25333;50.762;4.470;2023-01-08T00:45:45;6.55;;;2.10;;
38972;SDS011;25333;50.762;4.470;2023-01-08T00:48:10;4.43;;;1.80;;
38972;SDS011;25333;50.762;4.470;2023-01-08T00:50:36;4.78;;;1.80;;
38972;SDS011;25333;50.762;4.470;2023-01-08T00:53:02;5.93;;;2.40;;
38972;SDS011;25333;50.762;4.470;2023-01-08T00:55:28;3.58;;;1.63;;
38972;SDS011;25333;50.762;4.470;2023-01-08T00:57:54;2.35;;;1.25;;
38972;SDS011;25333;50.762;4.470;2023-01-08T01:00:22;4.50;;;2.08;;
38972;SDS011;25333;50.762;4.470;2023-01-08T01:02:48;3.55;;;1.90;;
38972;SDS011;25333;50.762;4.470;2023-01-08T01:05:13;5.50;;;1.73;;
38972;SDS011;25333;50.762;4.470;2023-01-08T01:07:41;3.30;;;1.50;;
38972;SDS011;25333;50.762;4.470;2023-01-08T01:10:07;4.72;;;1.02;;
38972;SDS011;25333;50.762;4.470;2023-01-08T01:12:35;3.00;;;0.50;;
38972;SDS011;25333;50.762;4.470;2023-01-08T01:15:03;2.35;;;0.70;;
38972;SDS011;25333;50.762;4.470;2023-01-08T01:17:30;3.10;;;0.70;;
38972;SDS011;25333;50.762;4.470;2023-01-08T01:19:56;2.22;;;0.45;;
38972;SDS011;25333;50.762;4.470;2023-01-08T01:22:21;4.75;;;0.68;;
38972;SDS011;25333;50.762;4.470;2023-01-08T01:24:47;3.77;;;0.70;;
38972;SDS011;25333;50.762;4.470;2023-01-08T01:27:12;3.70;;;0.75;;
38972;SDS011;25333;50.762;4.470;2023-01-08T01:29:38;3.60;;;0.60;;
38972;SDS011;25333;50.762;4.470;2023-01-08T01:32:04;2.67;;;0.60;;
38972;SDS011;25333;50.762;4.470;2023-01-08T01:34:30;3.28;;;0.75;;
38972;SDS011;25333;50.762;4.470;2023-01-08T01:36:55;3.27;;;0.70;;
38972;SDS011;25333;50.762;4.470;2023-01-08T01:39:21;4.13;;;0.90;;
38972;SDS011;25333;50.762;4.470;2023-01-08T01:41:47;3.40;;;1.02;;
38972;SDS011;25333;50.762;4.470;2023-01-08T01:46:59;3.63;;;0.90;;
38972;SDS011;25333;50.762;4.470;2023-01-08T01:49:27;4.13;;;0.82;;
38972;SDS011;25333;50.762;4.470;2023-01-08T01:51:55;2.28;;;0.80;;
38972;SDS011;25333;50.762;4.470;2023-01-08T01:54:26;6.20;;;0.82;;
38972;SDS011;25333;50.762;4.470;2023-01-08T01:56:53;3.75;;;1.00;;
38972;SDS011;25333;50.762;4.470;2023-01-08T01:59:20;4.35;;;0.85;;
38972;SDS011;25333;50.762;4.470;2023-01-08T02:01:46;2.05;;;0.82;;
38972;SDS011;25333;50.762;4.470;2023-01-08T02:04:12;4.70;;;0.90;;
38972;SDS011;25333;50.762;4.470;2023-01-08T02:19:59;3.55;;;0.93;;
38972;SDS011;25333;50.762;4.470;2023-01-08T02:22:53;4.80;;;1.35;;
38972;SDS011;25333;50.762;4.470;2023-01-08T02:25:31;4.20;;;1.25;;
38972;SDS011;25333;50.762;4.470;2023-01-08T02:28:21;6.60;;;1.20;;
38972;SDS011;25333;50.762;4.470;2023-01-08T02:30:48;3.75;;;1.38;;
38972;SDS011;25333;50.762;4.470;2023-01-08T02:33:14;3.50;;;1.23;;
38972;SDS011;25333;50.762;4.470;2023-01-08T02:35:53;5.40;;;1.85;;
38972;SDS011;25333;50.762;4.470;2023-01-08T02:38:40;5.85;;;1.67;;
38972;SDS011;25333;50.762;4.470;2023-01-08T02:41:12;4.55;;;1.23;;
38972;SDS011;25333;50.762;4.470;2023-01-08T02:43:44;5.97;;;1.50;;
38972;SDS011;25333;50.762;4.470;2023-01-08T02:46:15;8.60;;;1.85;;
38972;SDS011;25333;50.762;4.470;2023-01-08T02:48:45;5.67;;;1.67;;
38972;SDS011;25333;50.762;4.470;2023-01-08T02:51:16;3.53;;;2.20;;
38972;SDS011;25333;50.762;4.470;2023-01-08T02:53:49;5.65;;;2.40;;
38972;SDS011;25333;50.762;4.470;2023-01-08T02:56:19;3.40;;;2.10;;
38972;SDS011;25333;50.762;4.470;2023-01-08T02:58:49;3.93;;;1.73;;
38972;SDS011;25333;50.762;4.470;2023-01-08T03:01:18;2.95;;;1.58;;
38972;SDS011;25333;50.762;4.470;2023-01-08T03:03:48;4.05;;;1.58;;
38972;SDS011;25333;50.762;4.470;2023-01-08T03:06:17;5.00;;;2.00;;
38972;SDS011;25333;50.762;4.470;2023-01-08T03:08:48;3.33;;;1.00;;
38972;SDS011;25333;50.762;4.470;2023-01-08T03:11:16;2.45;;;0.98;;
38972;SDS011;25333;50.762;4.470;2023-01-08T03:16:24;3.78;;;0.73;;
38972;SDS011;25333;50.762;4.470;2023-01-08T03:19:08;2.77;;;0.50;;
38972;SDS011;25333;50.762;4.470;2023-01-08T03:21:41;1.90;;;0.40;;
38972;SDS011;25333;50.762;4.470;2023-01-08T03:24:08;3.92;;;0.90;;
38972;SDS011;25333;50.762;4.470;2023-01-08T03:26:37;3.88;;;0.50;;
38972;SDS011;25333;50.762;4.470;2023-01-08T03:29:05;4.95;;;0.75;;
38972;SDS011;25333;50.762;4.470;2023-01-08T03:31:37;1.85;;;0.40;;
38972;SDS011;25333;50.762;4.470;2023-01-08T03:34:04;2.30;;;0.50;;
38972;SDS011;25333;50.762;4.470;2023-01-08T03:36:31;2.03;;;0.45;;
38972;SDS011;25333;50.762;4.470;2023-01-08T03:39:02;3.30;;;0.50;;
38972;SDS011;25333;50.762;4.470;2023-01-08T03:41:35;4.63;;;0.40;;
38972;SDS011;25333;50.762;4.470;2023-01-08T03:44:00;4.13;;;0.63;;
38972;SDS011;25333;50.762;4.470;2023-01-08T03:46:27;3.67;;;0.45;;
38972;SDS011;25333;50.762;4.470;2023-01-08T03:48:56;4.17;;;0.60;;
38972;SDS011;25333;50.762;4.470;2023-01-08T03:51:23;1.40;;;0.30;;
38972;SDS011;25333;50.762;4.470;2023-01-08T03:53:49;2.10;;;0.35;;
38972;SDS011;25333;50.762;4.470;2023-01-08T03:56:18;4.72;;;0.60;;
38972;SDS011;25333;50.762;4.470;2023-01-08T03:58:44;5.10;;;0.60;;
38972;SDS011;25333;50.762;4.470;2023-01-08T04:01:09;5.03;;;0.90;;
38972;SDS011;25333;50.762;4.470;2023-01-08T04:03:35;2.27;;;0.30;;
38972;SDS011;25333;50.762;4.470;2023-01-08T04:06:01;4.68;;;0.45;;
38972;SDS011;25333;50.762;4.470;2023-01-08T04:08:26;3.72;;;0.40;;
38972;SDS011;25333;50.762;4.470;2023-01-08T04:10:52;2.60;;;0.50;;
38972;SDS011;25333;50.762;4.470;2023-01-08T04:13:17;1.95;;;0.55;;
38972;SDS011;25333;50.762;4.470;2023-01-08T04:15:49;5.27;;;0.70;;
38972;SDS011;25333;50.762;4.470;2023-01-08T04:18:16;5.22;;;0.40;;
38972;SDS011;25333;50.762;4.470;2023-01-08T04:20:45;4.93;;;0.70;;
38972;SDS011;25333;50.762;4.470;2023-01-08T04:23:12;3.92;;;0.45;;
38972;SDS011;25333;50.762;4.470;2023-01-08T04:25:37;4.78;;;0.80;;
38972;SDS011;25333;50.762;4.470;2023-01-08T04:28:03;4.07;;;0.87;;
38972;SDS011;25333;50.762;4.470;2023-01-08T04:30:29;4.85;;;1.17;;
38972;SDS011;25333;50.762;4.470;2023-01-08T04:32:55;7.35;;;1.60;;
38972;SDS011;25333;50.762;4.470;2023-01-08T04:35:21;5.30;;;1.45;;
38972;SDS011;25333;50.762;4.470;2023-01-08T04:37:47;5.25;;;1.10;;
38972;SDS011;25333;50.762;4.470;2023-01-08T04:40:13;8.80;;;1.60;;
38972;SDS011;25333;50.762;4.470;2023-01-08T04:42:38;7.80;;;2.53;;
38972;SDS011;25333;50.762;4.470;2023-01-08T04:45:04;7.77;;;1.73;;
38972;SDS011;25333;50.762;4.470;2023-01-08T04:47:31;5.80;;;1.63;;
38972;SDS011;25333;50.762;4.470;2023-01-08T04:49:57;7.18;;;2.03;;
38972;SDS011;25333;50.762;4.470;2023-01-08T04:52:22;7.95;;;2.03;;
38972;SDS011;25333;50.762;4.470;2023-01-08T04:54:48;4.70;;;1.40;;
38972;SDS011;25333;50.762;4.470;2023-01-08T04:57:13;4.72;;;2.03;;
38972;SDS011;25333;50.762;4.470;2023-01-08T04:59:39;5.13;;;1.67;;
38972;SDS011;25333;50.762;4.470;2023-01-08T05:02:05;5.45;;;0.90;;
38972;SDS011;25333;50.762;4.470;2023-01-08T05:04:32;3.95;;;0.75;;
38972;SDS011;25333;50.762;4.470;2023-01-08T05:07:01;8.30;;;1.48;;
38972;SDS011;25333;50.762;4.470;2023-01-08T05:09:28;6.90;;;1.15;;
38972;SDS011;25333;50.762;4.470;2023-01-08T05:11:54;5.88;;;0.85;;
38972;SDS011;25333;50.762;4.470;2023-01-08T05:14:19;5.10;;;0.73;;
38972;SDS011;25333;50.762;4.470;2023-01-08T05:16:45;4.97;;;0.63;;
38972;SDS011;25333;50.762;4.470;2023-01-08T05:19:11;6.35;;;1.00;;
38972;SDS011;25333;50.762;4.470;2023-01-08T05:21:37;6.53;;;0.97;;
38972;SDS011;25333;50.762;4.470;2023-01-08T05:24:03;7.27;;;0.67;;
38972;SDS011;25333;50.762;4.470;2023-01-08T05:26:29;7.57;;;0.85;;
38972;SDS011;25333;50.762;4.470;2023-01-08T05:28:54;4.32;;;1.23;;
38972;SDS011;25333;50.762;4.470;2023-01-08T05:31:20;4.93;;;0.70;;
38972;SDS011;25333;50.762;4.470;2023-01-08T05:33:45;6.85;;;0.57;;
38972;SDS011;25333;50.762;4.470;2023-01-08T05:36:11;3.50;;;0.70;;
38972;SDS011;25333;50.762;4.470;2023-01-08T05:38:37;4.73;;;0.57;;
38972;SDS011;25333;50.762;4.470;2023-01-08T05:41:03;7.13;;;0.67;;
38972;SDS011;25333;50.762;4.470;2023-01-08T05:43:30;3.15;;;0.63;;
38972;SDS011;25333;50.762;4.470;2023-01-08T05:45:56;4.40;;;0.57;;
38972;SDS011;25333;50.762;4.470;2023-01-08T05:48:23;6.47;;;0.70;;
38972;SDS011;25333;50.762;4.470;2023-01-08T05:50:49;3.17;;;0.70;;
38972;SDS011;25333;50.762;4.470;2023-01-08T05:53:15;4.28;;;0.47;;
38972;SDS011;25333;50.762;4.470;2023-01-08T05:55:41;4.43;;;0.93;;
38972;SDS011;25333;50.762;4.470;2023-01-08T05:58:06;4.28;;;0.68;;
38972;SDS011;25333;50.762;4.470;2023-01-08T06:00:32;3.40;;;0.90;;
38972;SDS011;25333;50.762;4.470;2023-01-08T06:02:58;3.30;;;0.60;;
38972;SDS011;25333;50.762;4.470;2023-01-08T06:05:24;6.53;;;1.25;;
38972;SDS011;25333;50.762;4.470;2023-01-08T06:07:49;2.80;;;0.77;;
38972;SDS011;25333;50.762;4.470;2023-01-08T06:10:15;9.70;;;1.33;;
38972;SDS011;25333;50.762;4.470;2023-01-08T06:12:41;3.83;;;0.67;;
38972;SDS011;25333;50.762;4.470;2023-01-08T06:15:06;5.87;;;0.60;;
38972;SDS011;25333;50.762;4.470;2023-01-08T06:17:34;5.03;;;0.80;;
38972;SDS011;25333;50.762;4.470;2023-01-08T06:20:00;4.35;;;0.47;;
38972;SDS011;25333;50.762;4.470;2023-01-08T06:22:25;3.97;;;0.67;;
38972;SDS011;25333;50.762;4.470;2023-01-08T06:24:51;7.00;;;0.95;;
38972;SDS011;25333;50.762;4.470;2023-01-08T06:27:17;4.68;;;0.95;;
38972;SDS011;25333;50.762;4.470;2023-01-08T06:29:43;5.80;;;1.25;;
38972;SDS011;25333;50.762;4.470;2023-01-08T06:32:08;5.33;;;0.80;;
38972;SDS011;25333;50.762;4.470;2023-01-08T06:34:34;3.25;;;0.82;;
38972;SDS011;25333;50.762;4.470;2023-01-08T06:36:59;8.25;;;0.93;;
38972;SDS011;25333;50.762;4.470;2023-01-08T06:39:25;5.97;;;0.80;;
38972;SDS011;25333;50.762;4.470;2023-01-08T06:41:51;3.65;;;1.00;;
38972;SDS011;25333;50.762;4.470;2023-01-08T06:44:16;4.35;;;1.13;;
38972;SDS011;25333;50.762;4.470;2023-01-08T06:46:42;8.90;;;1.27;;
38972;SDS011;25333;50.762;4.470;2023-01-08T06:49:08;6.97;;;1.00;;
38972;SDS011;25333;50.762;4.470;2023-01-08T06:51:34;9.43;;;2.27;;
38972;SDS011;25333;50.762;4.470;2023-01-08T06:54:02;6.60;;;1.10;;
38972;SDS011;25333;50.762;4.470;2023-01-08T06:56:27;6.38;;;0.70;;
38972;SDS011;25333;50.762;4.470;2023-01-08T06:58:53;6.70;;;1.02;;
38972;SDS011;25333;50.762;4.470;2023-01-08T07:01:19;8.53;;;1.77;;
38972;SDS011;25333;50.762;4.470;2023-01-08T07:03:46;5.70;;;0.93;;
38972;SDS011;25333;50.762;4.470;2023-01-08T07:06:16;3.67;;;1.05;;
38972;SDS011;25333;50.762;4.470;2023-01-08T07:08:44;11.95;;;2.00;;
38972;SDS011;25333;50.762;4.470;2023-01-08T07:11:10;7.72;;;1.25;;
38972;SDS011;25333;50.762;4.470;2023-01-08T07:13:35;6.38;;;1.15;;
38972;SDS011;25333;50.762;4.470;2023-01-08T07:16:05;5.25;;;1.30;;
38972;SDS011;25333;50.762;4.470;2023-01-08T07:18:31;6.90;;;1.20;;
38972;SDS011;25333;50.762;4.470;2023-01-08T07:20:57;6.65;;;1.23;;
38972;SDS011;25333;50.762;4.470;2023-01-08T07:23:22;4.37;;;1.23;;
38972;SDS011;25333;50.762;4.470;2023-01-08T07:25:48;7.30;;;1.02;;
38972;SDS011;25333;50.762;4.470;2023-01-08T07:28:14;6.83;;;0.73;;
38972;SDS011;25333;50.762;4.470;2023-01-08T07:30:40;8.13;;;1.60;;
38972;SDS011;25333;50.762;4.470;2023-01-08T07:33:07;11.87;;;1.50;;
38972;SDS011;25333;50.762;4.470;2023-01-08T07:35:32;5.70;;;0.90;;
38972;SDS011;25333;50.762;4.470;2023-01-08T07:37:59;9.45;;;1.20;;
38972;SDS011;25333;50.762;4.470;2023-01-08T07:40:25;5.85;;;1.02;;
38972;SDS011;25333;50.762;4.470;2023-01-08T07:42:57;7.70;;;1.20;;
38972;SDS011;25333;50.762;4.470;2023-01-08T07:45:24;7.88;;;1.27;;
38972;SDS011;25333;50.762;4.470;2023-01-08T07:47:50;6.03;;;1.20;;
38972;SDS011;25333;50.762;4.470;2023-01-08T07:50:16;13.63;;;1.45;;
38972;SDS011;25333;50.762;4.470;2023-01-08T07:52:42;7.57;;;1.20;;
38972;SDS011;25333;50.762;4.470;2023-01-08T07:55:07;6.60;;;1.17;;
38972;SDS011;25333;50.762;4.470;2023-01-08T07:57:33;6.22;;;1.02;;
38972;SDS011;25333;50.762;4.470;2023-01-08T07:59:59;6.40;;;1.23;;
38972;SDS011;25333;50.762;4.470;2023-01-08T08:02:24;4.83;;;1.20;;
38972;SDS011;25333;50.762;4.470;2023-01-08T08:04:50;5.97;;;1.30;;
38972;SDS011;25333;50.762;4.470;2023-01-08T08:07:16;12.13;;;2.03;;
38972;SDS011;25333;50.762;4.470;2023-01-08T08:09:41;8.75;;;1.58;;
38972;SDS011;25333;50.762;4.470;2023-01-08T08:12:07;5.20;;;1.40;;
38972;SDS011;25333;50.762;4.470;2023-01-08T08:14:33;7.70;;;1.35;;
38972;SDS011;25333;50.762;4.470;2023-01-08T08:16:59;5.20;;;1.38;;
38972;SDS011;25333;50.762;4.470;2023-01-08T08:19:25;7.53;;;1.17;;
38972;SDS011;25333;50.762;4.470;2023-01-08T08:21:50;5.03;;;1.27;;
38972;SDS011;25333;50.762;4.470;2023-01-08T08:24:16;6.72;;;1.27;;
38972;SDS011;25333;50.762;4.470;2023-01-08T08:26:42;4.87;;;1.20;;
38972;SDS011;25333;50.762;4.470;2023-01-08T08:29:07;3.60;;;0.90;;
38972;SDS011;25333;50.762;4.470;2023-01-08T08:31:33;3.57;;;1.13;;
38972;SDS011;25333;50.762;4.470;2023-01-08T08:33:58;2.75;;;0.73;;
38972;SDS011;25333;50.762;4.470;2023-01-08T08:36:28;3.30;;;1.02;;
38972;SDS011;25333;50.762;4.470;2023-01-08T08:38:54;2.27;;;0.57;;
38972;SDS011;25333;50.762;4.470;2023-01-08T08:41:20;2.37;;;0.40;;
38972;SDS011;25333;50.762;4.470;2023-01-08T08:43:46;3.22;;;0.70;;
38972;SDS011;25333;50.762;4.470;2023-01-08T08:46:13;6.57;;;0.60;;
38972;SDS011;25333;50.762;4.470;2023-01-08T08:48:39;1.80;;;0.40;;
38972;SDS011;25333;50.762;4.470;2023-01-08T08:51:04;1.13;;;0.20;;
38972;SDS011;25333;50.762;4.470;2023-01-08T08:53:30;2.60;;;0.20;;
38972;SDS011;25333;50.762;4.470;2023-01-08T08:55:57;0.70;;;0.20;;
38972;SDS011;25333;50.762;4.470;2023-01-08T08:58:23;1.10;;;0.20;;
38972;SDS011;25333;50.762;4.470;2023-01-08T09:00:48;0.60;;;0.10;;
38972;SDS011;25333;50.762;4.470;2023-01-08T09:03:14;2.13;;;0.20;;
38972;SDS011;25333;50.762;4.470;2023-01-08T09:05:40;1.20;;;0.10;;
38972;SDS011;25333;50.762;4.470;2023-01-08T09:08:07;0.20;;;0.00;;
38972;SDS011;25333;50.762;4.470;2023-01-08T09:10:35;0.90;;;0.10;;
38972;SDS011;25333;50.762;4.470;2023-01-08T09:13:01;1.17;;;0.30;;
38972;SDS011;25333;50.762;4.470;2023-01-08T09:15:27;0.40;;;0.00;;
38972;SDS011;25333;50.762;4.470;2023-01-08T09:17:56;0.15;;;0.00;;
38972;SDS011;25333;50.762;4.470;2023-01-08T09:20:23;0.80;;;0.10;;
38972;SDS011;25333;50.762;4.470;2023-01-08T09:22:49;0.40;;;0.00;;
38972;SDS011;25333;50.762;4.470;2023-01-08T09:25:15;1.10;;;0.10;;
38972;SDS011;25333;50.762;4.470;2023-01-08T09:27:41;0.50;;;0.10;;
38972;SDS011;25333;50.762;4.470;2023-01-08T09:30:07;1.05;;;0.13;;
38972;SDS011;25333;50.762;4.470;2023-01-08T09:32:33;1.45;;;0.20;;
38972;SDS011;25333;50.762;4.470;2023-01-08T09:34:59;1.58;;;0.20;;
38972;SDS011;25333;50.762;4.470;2023-01-08T09:37:24;0.20;;;0.10;;
38972;SDS011;25333;50.762;4.470;2023-01-08T09:39:50;0.70;;;0.30;;
38972;SDS011;25333;50.762;4.470;2023-01-08T09:42:21;1.50;;;0.20;;
38972;SDS011;25333;50.762;4.470;2023-01-08T09:44:52;1.52;;;0.10;;
38972;SDS011;25333;50.762;4.470;2023-01-08T09:47:21;0.98;;;0.20;;
38972;SDS011;25333;50.762;4.470;2023-01-08T09:49:53;2.85;;;0.32;;
38972;SDS011;25333;50.762;4.470;2023-01-08T09:52:24;2.60;;;0.20;;
38972;SDS011;25333;50.762;4.470;2023-01-08T09:54:49;1.35;;;0.40;;
38972;SDS011;25333;50.762;4.470;2023-01-08T09:57:19;1.10;;;0.30;;
38972;SDS011;25333;50.762;4.470;2023-01-08T09:59:46;0.90;;;0.20;;
38972;SDS011;25333;50.762;4.470;2023-01-08T10:02:19;2.47;;;0.30;;
38972;SDS011;25333;50.762;4.470;2023-01-08T10:04:53;2.25;;;0.30;;
38972;SDS011;25333;50.762;4.470;2023-01-08T10:07:37;1.27;;;0.40;;
38972;SDS011;25333;50.762;4.470;2023-01-08T10:10:03;1.65;;;0.40;;
38972;SDS011;25333;50.762;4.470;2023-01-08T10:12:30;1.25;;;0.38;;
38972;SDS011;25333;50.762;4.470;2023-01-08T10:15:01;2.53;;;0.70;;
38972;SDS011;25333;50.762;4.470;2023-01-08T10:20:01;4.40;;;0.70;;
38972;SDS011;25333;50.762;4.470;2023-01-08T10:22:28;1.95;;;0.70;;
38972;SDS011;25333;50.762;4.470;2023-01-08T10:25:05;2.03;;;0.60;;
38972;SDS011;25333;50.762;4.470;2023-01-08T10:30:17;1.30;;;0.50;;
38972;SDS011;25333;50.762;4.470;2023-01-08T10:32:49;1.10;;;0.40;;
38972;SDS011;25333;50.762;4.470;2023-01-08T10:35:23;3.40;;;0.32;;
38972;SDS011;25333;50.762;4.470;2023-01-08T10:38:03;6.18;;;0.80;;
38972;SDS011;25333;50.762;4.470;2023-01-08T10:40:39;2.47;;;0.60;;
38972;SDS011;25333;50.762;4.470;2023-01-08T10:43:14;2.15;;;0.55;;
38972;SDS011;25333;50.762;4.470;2023-01-08T10:45:55;5.05;;;0.82;;
38972;SDS011;25333;50.762;4.470;2023-01-08T10:48:29;3.15;;;0.60;;
38972;SDS011;25333;50.762;4.470;2023-01-08T10:51:04;2.20;;;0.30;;
38972;SDS011;25333;50.762;4.470;2023-01-08T10:53:42;4.15;;;0.50;;
38972;SDS011;25333;50.762;4.470;2023-01-08T10:56:17;3.03;;;0.35;;
38972;SDS011;25333;50.762;4.470;2023-01-08T10:58:48;3.90;;;0.57;;
38972;SDS011;25333;50.762;4.470;2023-01-08T11:03:52;5.18;;;0.70;;
38972;SDS011;25333;50.762;4.470;2023-01-08T11:06:29;3.65;;;0.40;;
38972;SDS011;25333;50.762;4.470;2023-01-08T11:09:02;2.22;;;0.30;;
38972;SDS011;25333;50.762;4.470;2023-01-08T11:11:45;3.42;;;0.70;;
38972;SDS011;25333;50.762;4.470;2023-01-08T11:14:16;2.17;;;0.40;;
38972;SDS011;25333;50.762;4.470;2023-01-08T11:16:53;2.20;;;0.40;;
38972;SDS011;25333;50.762;4.470;2023-01-08T11:19:30;2.35;;;0.70;;
38972;SDS011;25333;50.762;4.470;2023-01-08T11:24:58;6.93;;;0.90;;
38972;SDS011;25333;50.762;4.470;2023-01-08T11:27:25;1.90;;;0.40;;
38972;SDS011;25333;50.762;4.470;2023-01-08T11:30:01;1.58;;;0.35;;
38972;SDS011;25333;50.762;4.470;2023-01-08T11:35:30;3.33;;;0.43;;
38972;SDS011;25333;50.762;4.470;2023-01-08T11:38:03;4.03;;;0.93;;
38972;SDS011;25333;50.762;4.470;2023-01-08T11:55:06;1.67;;;0.40;;
38972;SDS011;25333;50.762;4.470;2023-01-08T11:57:58;3.40;;;0.70;;
38972;SDS011;25333;50.762;4.470;2023-01-08T12:03:48;3.53;;;0.68;;
38972;SDS011;25333;50.762;4.470;2023-01-08T12:22:35;2.78;;;0.50;;
38972;SDS011;25333;50.762;4.470;2023-01-08T12:33:38;4.18;;;0.90;;
38972;SDS011;25333;50.762;4.470;2023-01-08T12:36:17;3.25;;;0.60;;
38972;SDS011;25333;50.762;4.470;2023-01-08T12:38:51;3.90;;;0.55;;
38972;SDS011;25333;50.762;4.470;2023-01-08T12:41:30;4.47;;;0.73;;
38972;SDS011;25333;50.762;4.470;2023-01-08T12:44:02;3.00;;;0.50;;
38972;SDS011;25333;50.762;4.470;2023-01-08T12:46:34;2.88;;;0.65;;
38972;SDS011;25333;50.762;4.470;2023-01-08T12:49:03;2.35;;;0.50;;
38972;SDS011;25333;50.762;4.470;2023-01-08T12:51:35;3.63;;;0.80;;
38972;SDS011;25333;50.762;4.470;2023-01-08T12:54:54;2.67;;;0.50;;
38972;SDS011;25333;50.762;4.470;2023-01-08T12:57:10;3.80;;;0.65;;
38972;SDS011;25333;50.762;4.470;2023-01-08T12:59:45;2.60;;;0.45;;
38972;SDS011;25333;50.762;4.470;2023-01-08T13:02:36;2.85;;;0.90;;
38972;SDS011;25333;50.762;4.470;2023-01-08T13:07:45;3.53;;;0.40;;
38972;SDS011;25333;50.762;4.470;2023-01-08T13:13:07;5.80;;;0.55;;
38972;SDS011;25333;50.762;4.470;2023-01-08T13:15:49;3.40;;;0.50;;
38972;SDS011;25333;50.762;4.470;2023-01-08T13:18:16;3.53;;;0.63;;
38972;SDS011;25333;50.762;4.470;2023-01-08T13:20:53;1.77;;;0.45;;
38972;SDS011;25333;50.762;4.470;2023-01-08T13:23:28;4.03;;;0.65;;
38972;SDS011;25333;50.762;4.470;2023-01-08T13:25:56;2.30;;;0.38;;
38972;SDS011;25333;50.762;4.470;2023-01-08T13:30:49;4.10;;;0.70;;
38972;SDS011;25333;50.762;4.470;2023-01-08T13:38:38;3.78;;;0.52;;
38972;SDS011;25333;50.762;4.470;2023-01-08T13:41:04;2.40;;;0.50;;
38972;SDS011;25333;50.762;4.470;2023-01-08T13:43:39;2.40;;;0.60;;
38972;SDS011;25333;50.762;4.470;2023-01-08T13:48:38;6.80;;;1.33;;
38972;SDS011;25333;50.762;4.470;2023-01-08T13:53:54;2.15;;;0.60;;
38972;SDS011;25333;50.762;4.470;2023-01-08T13:56:20;5.60;;;0.70;;
38972;SDS011;25333;50.762;4.470;2023-01-08T13:58:50;2.42;;;0.35;;
38972;SDS011;25333;50.762;4.470;2023-01-08T14:01:17;5.70;;;0.68;;
38972;SDS011;25333;50.762;4.470;2023-01-08T14:03:44;3.67;;;0.90;;
38972;SDS011;25333;50.762;4.470;2023-01-08T14:11:21;3.00;;;0.40;;
38972;SDS011;25333;50.762;4.470;2023-01-08T14:13:49;1.85;;;0.50;;
38972;SDS011;25333;50.762;4.470;2023-01-08T14:16:15;6.28;;;0.82;;
38972;SDS011;25333;50.762;4.470;2023-01-08T14:18:42;3.53;;;0.40;;
38972;SDS011;25333;50.762;4.470;2023-01-08T14:21:09;2.45;;;0.30;;
38972;SDS011;25333;50.762;4.470;2023-01-08T14:23:43;4.22;;;0.50;;
38972;SDS011;25333;50.762;4.470;2023-01-08T14:26:15;3.00;;;0.43;;
38972;SDS011;25333;50.762;4.470;2023-01-08T14:28:49;4.85;;;0.75;;
38972;SDS011;25333;50.762;4.470;2023-01-08T14:31:20;4.30;;;0.50;;
38972;SDS011;25333;50.762;4.470;2023-01-08T14:33:47;3.88;;;0.68;;
38972;SDS011;25333;50.762;4.470;2023-01-08T14:36:13;3.25;;;0.75;;
38972;SDS011;25333;50.762;4.470;2023-01-08T14:38:39;3.22;;;0.73;;
38972;SDS011;25333;50.762;4.470;2023-01-08T14:41:10;4.73;;;0.67;;
38972;SDS011;25333;50.762;4.470;2023-01-08T14:43:42;4.47;;;0.85;;
38972;SDS011;25333;50.762;4.470;2023-01-08T14:48:45;5.70;;;0.55;;
38972;SDS011;25333;50.762;4.470;2023-01-08T14:51:12;3.83;;;0.50;;
38972;SDS011;25333;50.762;4.470;2023-01-08T14:53:45;8.30;;;0.70;;
38972;SDS011;25333;50.762;4.470;2023-01-08T14:56:15;4.30;;;0.60;;
38972;SDS011;25333;50.762;4.470;2023-01-08T14:58:46;2.78;;;0.68;;
38972;SDS011;25333;50.762;4.470;2023-01-08T15:01:13;4.93;;;0.88;;
38972;SDS011;25333;50.762;4.470;2023-01-08T15:03:42;1.80;;;0.60;;
38972;SDS011;25333;50.762;4.470;2023-01-08T15:06:09;3.33;;;0.52;;
38972;SDS011;25333;50.762;4.470;2023-01-08T15:08:37;3.38;;;0.70;;
38972;SDS011;25333;50.762;4.470;2023-01-08T15:13:42;3.58;;;0.75;;
38972;SDS011;25333;50.762;4.470;2023-01-08T15:19:09;3.97;;;0.80;;
38972;SDS011;25333;50.762;4.470;2023-01-08T15:21:59;2.03;;;0.47;;
38972;SDS011;25333;50.762;4.470;2023-01-08T15:24:30;4.05;;;0.68;;
38972;SDS011;25333;50.762;4.470;2023-01-08T15:27:13;3.65;;;0.82;;
38972;SDS011;25333;50.762;4.470;2023-01-08T15:29:47;4.25;;;0.68;;
38972;SDS011;25333;50.762;4.470;2023-01-08T15:34:41;3.20;;;0.63;;
38972;SDS011;25333;50.762;4.470;2023-01-08T15:37:07;2.78;;;0.73;;
38972;SDS011;25333;50.762;4.470;2023-01-08T15:39:33;4.73;;;0.87;;
38972;SDS011;25333;50.762;4.470;2023-01-08T15:42:09;5.03;;;0.80;;
38972;SDS011;25333;50.762;4.470;2023-01-08T15:44:58;5.70;;;0.75;;
38972;SDS011;25333;50.762;4.470;2023-01-08T15:47:23;4.95;;;0.82;;
38972;SDS011;25333;50.762;4.470;2023-01-08T15:49:49;6.73;;;0.80;;
38972;SDS011;25333;50.762;4.470;2023-01-08T15:52:15;7.82;;;1.25;;
38972;SDS011;25333;50.762;4.470;2023-01-08T15:54:47;4.75;;;0.77;;
38972;SDS011;25333;50.762;4.470;2023-01-08T15:57:13;3.22;;;0.90;;
38972;SDS011;25333;50.762;4.470;2023-01-08T15:59:39;2.42;;;0.77;;
38972;SDS011;25333;50.762;4.470;2023-01-08T16:02:05;7.82;;;1.30;;
38972;SDS011;25333;50.762;4.470;2023-01-08T16:04:30;6.37;;;1.10;;
38972;SDS011;25333;50.762;4.470;2023-01-08T16:06:56;3.63;;;0.73;;
38972;SDS011;25333;50.762;4.470;2023-01-08T16:09:21;3.37;;;0.97;;
38972;SDS011;25333;50.762;4.470;2023-01-08T16:11:47;4.55;;;0.52;;
38972;SDS011;25333;50.762;4.470;2023-01-08T16:14:14;4.72;;;0.40;;
38972;SDS011;25333;50.762;4.470;2023-01-08T16:16:39;4.33;;;0.73;;
38972;SDS011;25333;50.762;4.470;2023-01-08T16:19:05;4.07;;;0.85;;
38972;SDS011;25333;50.762;4.470;2023-01-08T16:21:31;3.27;;;0.93;;
38972;SDS011;25333;50.762;4.470;2023-01-08T16:23:56;1.88;;;0.45;;
38972;SDS011;25333;50.762;4.470;2023-01-08T16:26:22;3.90;;;0.70;;
38972;SDS011;25333;50.762;4.470;2023-01-08T16:28:47;6.20;;;0.80;;
38972;SDS011;25333;50.762;4.470;2023-01-08T16:31:13;4.27;;;0.70;;
38972;SDS011;25333;50.762;4.470;2023-01-08T16:33:39;3.63;;;0.90;;
38972;SDS011;25333;50.762;4.470;2023-01-08T16:36:08;6.90;;;1.13;;
38972;SDS011;25333;50.762;4.470;2023-01-08T16:38:35;2.57;;;1.17;;
38972;SDS011;25333;50.762;4.470;2023-01-08T16:41:00;4.27;;;0.73;;
38972;SDS011;25333;50.762;4.470;2023-01-08T16:43:27;4.10;;;0.90;;
38972;SDS011;25333;50.762;4.470;2023-01-08T16:45:57;2.58;;;0.82;;